createdAt,value
2018-09-28T00:02:15.959Z,11.02
2018-09-28T00:07:10.873Z,10.96
2018-09-28T00:12:05.691Z,10.90
2018-09-28T00:17:00.917Z,10.75
2018-09-28T00:21:55.752Z,10.87
2018-09-28T00:26:50.594Z,10.57
2018-09-28T00:31:45.440Z,10.86
2018-09-28T00:36:40.239Z,10.75
2018-09-28T00:41:35.102Z,10.72
2018-09-28T00:46:30.026Z,10.74
2018-09-28T00:51:24.987Z,10.61
2018-09-28T00:56:19.860Z,10.66
2018-09-28T01:01:14.774Z,10.44
2018-09-28T01:06:09.627Z,10.52
2018-09-28T01:11:05.336Z,10.33
2018-09-28T01:16:00.533Z,10.16
2018-09-28T01:20:55.418Z,10.11
2018-09-28T01:25:50.224Z,10.22
2018-09-28T01:30:45.023Z,10.21
2018-09-28T01:35:39.843Z,10.18
2018-09-28T01:40:34.672Z,10.22
2018-09-28T01:45:29.466Z,10.33
2018-09-28T01:50:24.393Z,10.40
2018-09-28T01:55:19.814Z,10.28
2018-09-28T02:00:14.604Z,10.36
2018-09-28T02:05:09.552Z,10.50
2018-09-28T02:10:04.429Z,10.31
2018-09-28T02:14:59.280Z,10.23
2018-09-28T02:19:54.072Z,10.28
2018-09-28T02:24:48.929Z,10.19
2018-09-28T02:29:43.721Z,10.05
2018-09-28T02:34:38.573Z,9.93
2018-09-28T02:39:33.470Z,10.02
2018-09-28T02:44:28.384Z,10.11
2018-09-28T02:49:23.197Z,10.12
2018-09-28T02:54:18.098Z,10.01
2018-09-28T02:59:12.888Z,10.03
2018-09-28T03:04:07.769Z,10.04
2018-09-28T03:09:02.670Z,9.88
2018-09-28T03:13:57.513Z,10.01
2018-09-28T03:18:52.997Z,9.79
2018-09-28T03:23:47.795Z,9.63
2018-09-28T03:28:42.578Z,9.71
2018-09-28T03:33:37.381Z,9.89
2018-09-28T03:38:32.226Z,9.92
2018-09-28T03:43:27.010Z,10.00
2018-09-28T03:48:21.821Z,9.82
2018-09-28T03:53:16.623Z,9.70
2018-09-28T03:58:11.472Z,9.52
2018-09-28T04:03:06.399Z,9.50
2018-09-28T04:08:01.303Z,9.57
2018-09-28T04:12:56.128Z,9.65
2018-09-28T04:17:50.954Z,9.70
2018-09-28T04:22:46.496Z,9.71
2018-09-28T04:27:41.346Z,9.76
2018-09-28T04:32:36.215Z,9.78
2018-09-28T04:37:31.012Z,9.60
2018-09-28T04:42:25.771Z,9.45
2018-09-28T04:47:20.664Z,9.33
2018-09-28T04:52:15.582Z,9.44
2018-09-28T04:57:10.350Z,9.59
2018-09-28T05:02:05.429Z,9.60
2018-09-28T05:07:00.262Z,9.50
2018-09-28T05:11:55.131Z,9.56
2018-09-28T05:16:49.986Z,9.49
2018-09-28T05:21:44.899Z,9.55
2018-09-28T05:26:39.837Z,9.64
2018-09-28T05:31:34.718Z,9.64
2018-09-28T05:36:29.532Z,9.70
2018-09-28T05:41:24.363Z,9.66
2018-09-28T05:46:19.282Z,9.76
2018-09-28T05:51:14.125Z,9.93
2018-09-28T05:56:08.977Z,10.07
2018-09-28T06:01:08.840Z,10.26
2018-09-28T06:06:04.295Z,10.45
2018-09-28T06:10:59.152Z,10.51
2018-09-28T06:15:54.089Z,10.72
2018-09-28T06:20:49.018Z,10.92
2018-09-28T06:25:43.976Z,11.12
2018-09-28T06:30:38.782Z,11.17
2018-09-28T06:35:33.632Z,11.34
2018-09-28T06:40:28.437Z,11.48
2018-09-28T06:45:23.295Z,11.60
2018-09-28T06:50:18.166Z,11.76
2018-09-28T06:55:13.001Z,11.75
2018-09-28T07:00:09.347Z,11.71
2018-09-28T07:05:05.260Z,11.78
2018-09-28T07:10:00.136Z,11.99
2018-09-28T07:14:55.034Z,12.14
2018-09-28T07:19:49.951Z,12.27
2018-09-28T07:24:44.859Z,12.48
2018-09-28T07:29:39.701Z,12.59
2018-09-28T07:34:34.539Z,12.59
2018-09-28T07:39:29.368Z,12.73
2018-09-28T07:44:24.181Z,12.96
2018-09-28T07:49:19.233Z,13.08
2018-09-28T07:54:13.999Z,13.24
2018-09-28T07:59:08.890Z,13.91
2018-09-28T08:04:03.769Z,14.31
2018-09-28T08:08:58.680Z,14.40
2018-09-28T08:13:53.482Z,15.07
2018-09-28T08:18:50.382Z,15.50
2018-09-28T08:23:45.264Z,15.97
2018-09-28T08:28:41.131Z,16.06
2018-09-28T08:33:36.362Z,16.39
2018-09-28T08:38:31.333Z,16.65
2018-09-28T08:43:26.194Z,16.99
2018-09-28T08:48:21.109Z,17.39
2018-09-28T08:53:15.965Z,17.75
2018-09-28T08:58:10.758Z,17.61
2018-09-28T09:03:05.620Z,17.83
2018-09-28T09:08:00.796Z,17.94
2018-09-28T09:12:55.729Z,18.17
2018-09-28T09:17:50.732Z,18.12
2018-09-28T09:22:45.514Z,18.15
2018-09-28T09:27:40.709Z,18.29
2018-09-28T09:32:35.681Z,18.44
2018-09-28T09:37:31.579Z,18.59
2018-09-28T09:42:26.612Z,18.82
2018-09-28T09:47:21.477Z,18.70
2018-09-28T09:52:16.350Z,18.99
2018-09-28T09:57:11.188Z,19.19
2018-09-28T10:02:11.310Z,19.23
2018-09-28T10:07:06.326Z,19.33
2018-09-28T10:12:01.297Z,19.32
2018-09-28T10:16:58.649Z,19.18
2018-09-28T10:21:53.479Z,19.03
2018-09-28T10:26:48.372Z,18.96
2018-09-28T10:31:43.183Z,18.93
2018-09-28T10:36:38.031Z,19.07
2018-09-28T10:41:32.848Z,19.15
2018-09-28T10:46:27.722Z,19.13
2018-09-28T10:51:22.647Z,19.24
2018-09-28T10:56:17.501Z,19.20
2018-09-28T11:01:12.379Z,19.28
2018-09-28T11:06:07.661Z,19.33
2018-09-28T11:11:02.914Z,19.41
2018-09-28T11:15:57.874Z,19.51
2018-09-28T11:20:53.943Z,19.52
2018-09-28T11:25:48.835Z,19.64
2018-09-28T11:30:43.806Z,19.72
2018-09-28T11:35:38.656Z,19.56
2018-09-28T11:40:33.503Z,19.74
2018-09-28T11:45:28.477Z,19.75
2018-09-28T11:50:23.167Z,19.79
2018-09-28T11:55:17.997Z,19.91
2018-09-28T12:00:13.262Z,20.14
2018-09-28T12:05:08.215Z,20.15
2018-09-28T12:10:03.156Z,20.41
2018-09-28T12:14:58.187Z,20.58
2018-09-28T12:19:53.075Z,20.64
2018-09-28T12:24:48.013Z,20.64
2018-09-28T12:29:42.907Z,20.73
2018-09-28T12:34:37.908Z,20.58
2018-09-28T12:39:33.023Z,20.61
2018-09-28T12:44:28.013Z,20.62
2018-09-28T12:49:22.914Z,20.62
2018-09-28T12:54:17.762Z,20.56
2018-09-28T12:59:13.438Z,20.50
2018-09-28T13:04:12.337Z,20.70
2018-09-28T13:09:08.377Z,20.63
2018-09-28T13:14:03.633Z,20.59
2018-09-28T13:18:58.654Z,20.72
2018-09-28T13:23:53.585Z,20.90
2018-09-28T13:28:48.438Z,20.85
2018-09-28T13:33:43.248Z,20.85
2018-09-28T13:38:38.283Z,20.89
2018-09-28T13:43:32.888Z,21.08
2018-09-28T13:48:27.780Z,21.06
2018-09-28T13:53:22.644Z,21.24
2018-09-28T13:58:18.199Z,21.14
2018-09-28T14:03:13.046Z,21.13
2018-09-28T14:08:08.021Z,21.16
2018-09-28T14:13:02.821Z,21.09
2018-09-28T14:17:57.660Z,21.09
2018-09-28T14:22:52.489Z,21.03
2018-09-28T14:27:48.387Z,21.07
2018-09-28T14:32:43.972Z,21.18
2018-09-28T14:37:38.791Z,21.23
2018-09-28T14:42:33.617Z,21.26
2018-09-28T14:47:28.524Z,21.31
2018-09-28T14:52:23.464Z,21.28
2018-09-28T14:57:18.296Z,21.27
2018-09-28T15:02:13.249Z,21.34
2018-09-28T15:07:08.381Z,21.40
2018-09-28T15:12:03.298Z,21.45
2018-09-28T15:16:58.132Z,21.36
2018-09-28T15:21:53.210Z,21.19
2018-09-28T15:26:51.884Z,20.93
2018-09-28T15:31:50.026Z,20.64
2018-09-28T15:36:48.424Z,20.34
2018-09-28T15:41:45.876Z,20.13
2018-09-28T15:46:40.912Z,19.93
2018-09-28T15:51:40.770Z,19.70
2018-09-28T15:56:35.897Z,19.58
2018-09-28T16:01:30.812Z,19.56
2018-09-28T16:06:28.689Z,19.54
2018-09-28T16:11:24.585Z,19.49
2018-09-28T16:16:21.139Z,19.43
2018-09-28T16:21:17.736Z,19.38
2018-09-28T16:26:12.710Z,19.28
2018-09-28T16:31:07.860Z,19.20
2018-09-28T16:36:03.169Z,19.07
2018-09-28T16:40:57.963Z,18.79
2018-09-28T16:45:52.831Z,18.63
2018-09-28T16:50:47.697Z,18.51
2018-09-28T16:55:42.549Z,18.43
2018-09-28T17:00:37.891Z,18.31
2018-09-28T17:05:32.875Z,18.26
2018-09-28T17:10:27.758Z,18.11
2018-09-28T17:15:22.685Z,18.13
2018-09-28T17:20:17.579Z,18.13
2018-09-28T17:25:12.617Z,18.12
2018-09-28T17:30:08.423Z,18.27
2018-09-28T17:35:04.045Z,18.23
2018-09-28T17:40:00.145Z,18.12
2018-09-28T17:44:55.372Z,18.14
2018-09-28T17:49:51.905Z,18.15
2018-09-28T17:54:47.029Z,18.10
2018-09-28T17:59:42.378Z,17.98
2018-09-28T18:04:40.059Z,17.96
2018-09-28T18:09:35.639Z,18.42
2018-09-28T18:14:31.082Z,18.76
2018-09-28T18:19:26.284Z,18.95
2018-09-28T18:24:23.920Z,18.88
2018-09-28T18:29:20.282Z,18.80
2018-09-28T18:36:51.551Z,18.51
2018-09-28T18:41:50.355Z,18.55
2018-09-28T18:46:46.942Z,18.57
2018-09-28T18:51:42.311Z,18.46
2018-09-28T18:56:38.448Z,18.38
2018-09-28T19:01:36.554Z,18.28
2018-09-28T19:06:34.997Z,18.22
2018-09-28T19:11:32.897Z,18.09
2018-09-28T19:16:27.811Z,18.05
2018-09-28T19:21:23.275Z,18.16
2018-09-28T19:26:18.270Z,17.98
2018-09-28T19:31:13.239Z,17.85
2018-09-28T19:36:08.320Z,17.72
2018-09-28T19:41:05.462Z,17.65
2018-09-28T19:46:00.379Z,17.68
2018-09-28T19:50:55.310Z,17.70
2018-09-28T19:55:50.305Z,17.73
2018-09-28T20:00:45.526Z,17.65
2018-09-28T20:05:40.417Z,17.73
2018-09-28T20:10:35.383Z,17.68
2018-09-28T20:15:30.271Z,17.74
2018-09-28T20:20:25.765Z,17.59
2018-09-28T20:25:20.785Z,17.65
2018-09-28T20:30:15.671Z,17.60
2018-09-28T20:35:11.717Z,17.66
2018-09-28T20:40:06.720Z,17.49
2018-09-28T20:45:01.792Z,17.40
2018-09-28T20:49:57.013Z,17.40
2018-09-28T20:54:51.944Z,17.36
2018-09-28T20:59:46.822Z,17.34
2018-09-28T21:04:41.649Z,17.28
2018-09-28T21:09:36.522Z,17.19
2018-09-28T21:14:31.405Z,17.08
2018-09-28T21:19:26.265Z,17.05
2018-09-28T21:24:21.386Z,17.00
2018-09-28T21:29:16.243Z,17.06
2018-09-28T21:34:11.069Z,16.95
2018-09-28T21:39:08.234Z,16.93
2018-09-28T21:44:03.089Z,16.96
2018-09-28T21:48:58.088Z,16.74
2018-09-28T21:53:52.940Z,16.70
2018-09-28T21:58:47.762Z,16.71
2018-09-28T22:03:42.596Z,16.67
2018-09-28T22:08:37.521Z,16.63
2018-09-28T22:13:32.393Z,16.43
2018-09-28T22:18:27.201Z,16.36
2018-09-28T22:23:22.062Z,16.34
2018-09-28T22:28:17.044Z,16.26
2018-09-28T22:33:11.881Z,16.27
2018-09-28T22:38:06.736Z,16.17
2018-09-28T22:43:01.657Z,16.15
2018-09-28T22:47:56.444Z,15.94
2018-09-28T22:52:51.342Z,15.95
2018-09-28T22:57:46.199Z,15.92
2018-09-28T23:02:41.018Z,15.79
2018-09-28T23:07:35.859Z,15.82
2018-09-28T23:12:30.741Z,15.85
2018-09-28T23:17:26.251Z,15.66
2018-09-28T23:22:21.127Z,15.52
2018-09-28T23:27:15.923Z,15.58
2018-09-28T23:32:10.701Z,15.39
2018-09-28T23:37:05.617Z,15.24
2018-09-28T23:42:00.470Z,15.16
2018-09-28T23:46:55.342Z,15.08
2018-09-28T23:51:51.567Z,15.02
2018-09-28T23:56:46.604Z,14.93
